Time;durP1;ratioP1;P1;durP2;ratioP2;P2;SDS_P1;SDS_P2;PMS_P1;PMS_P2;Temp;Humidity;BMP_temperature;BMP_pressure;BME280_temperature;BME280_humidity;BME280_pressure;Samples;Min_cycle;Max_cycle;Signal;HPM_P1;HPM_P2
2022/01/21 00:00:21;;;;;;;159.05;130.75;;;22.40;39.10;;;;;;4773315;54;21822;-28
2022/01/21 00:05:23;;;;;;;150.68;124.45;;;22.40;39.10;;;;;;4739751;55;21062;-35
2022/01/21 00:10:24;;;;;;;148.77;121.72;;;22.40;39.00;;;;;;4710249;55;21470;-35
2022/01/21 00:15:24;;;;;;;149.30;124.85;;;22.40;38.90;;;;;;4738794;55;21097;-32
2022/01/21 00:31:04;;;;;;;138.75;115.30;;;22.40;39.50;;;;;;4700549;55;21035;-27
2022/01/21 00:36:06;;;;;;;137.95;114.88;;;22.40;38.80;;;;;;4724591;55;21055;-37
2022/01/21 00:41:07;;;;;;;140.15;115.65;;;22.40;38.80;;;;;;4710190;55;21537;-31
2022/01/21 00:46:09;;;;;;;133.23;109.93;;;22.40;38.80;;;;;;4751661;55;21083;-38
2022/01/21 00:51:11;;;;;;;131.95;110.00;;;22.40;38.70;;;;;;4700798;59;20999;-40
2022/01/21 00:56:12;;;;;;;131.05;108.68;;;22.40;38.70;;;;;;4796568;55;21007;-34
2022/01/21 01:01:13;;;;;;;129.73;106.10;;;22.40;38.70;;;;;;4734579;55;21087;-31
2022/01/21 01:06:16;;;;;;;128.15;107.50;;;22.40;38.90;;;;;;4712779;55;21075;-34
2022/01/21 01:11:28;;;;;;;121.87;102.80;;;22.40;38.60;;;;;;4755460;54;21075;-32
2022/01/21 01:21:54;;;;;;;118.93;100.55;;;22.40;38.50;;;;;;4700215;55;21123;-36
2022/01/21 01:32:14;;;;;;;114.93;98.10;;;22.40;38.50;;;;;;4700835;55;21080;-37
2022/01/21 01:37:30;;;;;;;110.37;91.75;;;22.40;38.40;;;;;;4713816;55;21023;-40
2022/01/21 01:42:58;;;;;;;108.00;91.78;;;22.40;38.40;;;;;;4699933;59;21554;-32
2022/01/21 01:53:39;;;;;;;107.35;91.35;;;22.40;38.30;;;;;;4700375;55;21027;-34
2022/01/21 01:58:43;;;;;;;106.30;90.03;;;22.40;38.30;;;;;;4725410;55;21007;-34
2022/01/21 02:03:43;;;;;;;107.20;88.03;;;22.40;38.20;;;;;;4706592;55;21493;-37
2022/01/21 02:08:44;;;;;;;100.18;85.65;;;22.40;38.20;;;;;;4708588;55;21094;-36
2022/01/21 02:13:49;;;;;;;100.00;83.12;;;22.40;38.20;;;;;;4712692;55;21008;-35
2022/01/21 02:24:23;;;;;;;95.18;79.97;;;22.40;38.10;;;;;;4699640;59;21063;-37
2022/01/21 02:29:30;;;;;;;95.85;80.47;;;22.40;38.10;;;;;;4715707;55;21731;-38
2022/01/21 02:34:32;;;;;;;96.63;79.72;;;22.40;38.10;;;;;;4717424;55;22006;-43
2022/01/21 02:39:32;;;;;;;90.75;77.70;;;22.40;38.00;;;;;;4733011;55;22057;-35
2022/01/21 02:44:34;;;;;;;91.28;77.53;;;22.30;38.00;;;;;;4710980;55;21051;-36
2022/01/21 02:49:35;;;;;;;87.03;75.85;;;22.40;38.00;;;;;;4728160;55;22002;-34
2022/01/21 02:54:36;;;;;;;90.03;75.07;;;22.40;38.60;;;;;;4719659;55;21075;-37
2022/01/21 02:59:37;;;;;;;83.45;71.15;;;22.40;37.90;;;;;;4714653;55;21588;-35
2022/01/21 03:04:51;;;;;;;82.35;68.80;;;22.40;37.90;;;;;;4699806;59;21042;-33
2022/01/21 03:09:52;;;;;;;82.20;70.55;;;22.40;37.80;;;;;;4725303;55;21505;-36
2022/01/21 03:14:52;;;;;;;82.62;69.25;;;22.40;37.80;;;;;;4749086;55;20980;-34
2022/01/21 03:19:53;;;;;;;78.28;66.45;;;22.40;37.70;;;;;;4723171;55;21506;-34
2022/01/21 03:24:54;;;;;;;80.30;67.65;;;22.40;37.70;;;;;;4712390;55;21047;-36
2022/01/21 03:29:55;;;;;;;75.15;62.65;;;22.40;37.70;;;;;;4726843;55;21107;-35
2022/01/21 03:34:56;;;;;;;76.45;66.32;;;22.40;37.70;;;;;;4709801;55;21469;-36
2022/01/21 03:39:57;;;;;;;75.32;64.55;;;22.40;37.60;;;;;;4703208;55;21075;-32
2022/01/21 03:44:58;;;;;;;71.18;60.65;;;22.40;37.60;;;;;;4742401;55;21015;-35
2022/01/21 03:50:18;;;;;;;72.15;59.75;;;22.40;37.60;;;;;;4735050;55;21011;-30
2022/01/21 03:55:19;;;;;;;74.82;61.00;;;22.40;37.50;;;;;;4745590;55;21601;-29
2022/01/21 04:00:23;;;;;;;67.62;57.25;;;22.40;37.50;;;;;;4720596;55;21078;-35
2022/01/21 04:05:25;;;;;;;66.35;56.17;;;22.40;37.50;;;;;;4714588;55;21043;-38
2022/01/21 04:10:26;;;;;;;65.18;55.35;;;22.40;37.40;;;;;;4701199;59;21219;-37
2022/01/21 04:15:27;;;;;;;65.00;55.83;;;22.40;37.50;;;;;;4713760;55;21075;-30
2022/01/21 04:20:28;;;;;;;64.97;55.17;;;22.40;37.40;;;;;;4715187;55;21990;-36
2022/01/21 04:25:29;;;;;;;61.53;53.38;;;22.40;37.40;;;;;;4738266;55;21027;-38
2022/01/21 04:30:30;;;;;;;61.92;53.28;;;22.40;37.30;;;;;;4732427;55;21086;-30
2022/01/21 04:35:33;;;;;;;58.42;51.60;;;22.50;37.20;;;;;;4716426;55;21031;-40
2022/01/21 04:40:39;;;;;;;62.78;52.70;;;22.50;37.10;;;;;;4712687;55;21011;-35
2022/01/21 04:51:14;;;;;;;58.10;49.20;;;22.60;37.10;;;;;;4706936;55;21063;-36
2022/01/21 04:56:15;;;;;;;56.85;48.70;;;22.60;37.10;;;;;;4702942;55;21065;-36
2022/01/21 05:01:16;;;;;;;58.00;49.00;;;22.60;37.10;;;;;;4706711;55;21179;-32
2022/01/21 05:06:17;;;;;;;55.85;47.85;;;22.70;37.20;;;;;;4700978;59;21075;-36
2022/01/21 05:11:18;;;;;;;56.80;48.45;;;22.70;37.20;;;;;;4701090;56;21051;-33
2022/01/21 05:16:35;;;;;;;53.30;46.78;;;22.70;37.20;;;;;;4716620;55;21008;-36
2022/01/21 05:21:36;;;;;;;56.53;46.60;;;22.70;37.10;;;;;;4778948;55;21573;-36
2022/01/21 05:26:39;;;;;;;54.58;47.00;;;22.70;37.20;;;;;;4708630;55;21112;-34
2022/01/21 05:31:40;;;;;;;51.90;43.72;;;22.70;37.10;;;;;;4783431;55;21597;-37
2022/01/21 05:36:41;;;;;;;49.90;44.13;;;22.70;37.20;;;;;;4700298;59;21063;-36
2022/01/21 05:41:48;;;;;;;50.45;43.47;;;22.70;37.20;;;;;;4700057;59;21532;-34
2022/01/21 05:46:55;;;;;;;47.90;41.20;;;22.80;37.30;;;;;;4700426;59;21774;-37
2022/01/21 05:52:03;;;;;;;49.00;42.08;;;22.80;37.30;;;;;;4734340;55;21035;-34
2022/01/21 05:57:06;;;;;;;49.35;42.30;;;22.80;37.40;;;;;;4754260;55;21620;-34
2022/01/21 06:02:08;;;;;;;51.60;42.97;;;22.80;37.30;;;;;;4727005;55;21571;-37
2022/01/21 06:07:10;;;;;;;47.85;41.28;;;22.80;37.40;;;;;;4726536;55;21118;-37
2022/01/21 06:12:11;;;;;;;49.95;40.50;;;22.80;37.40;;;;;;4742044;55;22270;-34
2022/01/21 06:17:13;;;;;;;46.70;41.40;;;22.80;37.40;;;;;;4776419;55;22180;-29
2022/01/21 06:22:15;;;;;;;47.65;40.10;;;22.80;37.40;;;;;;4727818;55;21071;-35
2022/01/21 06:27:18;;;;;;;45.72;39.55;;;22.80;37.40;;;;;;4702497;55;21572;-36
2022/01/21 06:32:19;;;;;;;46.00;39.35;;;22.80;37.40;;;;;;4710545;55;21584;-37
2022/01/21 06:37:20;;;;;;;45.95;39.70;;;22.80;37.40;;;;;;4714980;54;21508;-38
2022/01/21 06:42:24;;;;;;;47.10;39.00;;;22.80;37.40;;;;;;4730421;55;21074;-33
2022/01/21 06:47:25;;;;;;;46.20;39.47;;;22.80;37.50;;;;;;4728812;55;21496;-34
2022/01/21 06:52:30;;;;;;;44.70;38.83;;;22.80;37.40;;;;;;4700801;56;21193;-36
2022/01/21 06:57:31;;;;;;;46.47;37.88;;;22.80;37.40;;;;;;4700381;59;21084;-38
2022/01/21 07:02:32;;;;;;;46.37;39.38;;;22.80;37.40;;;;;;4710675;55;21050;-35
2022/01/21 07:07:33;;;;;;;48.20;40.72;;;22.80;37.40;;;;;;4701923;55;21075;-36
2022/01/21 07:12:35;;;;;;;48.75;41.90;;;22.80;37.40;;;;;;4748792;55;21031;-38
2022/01/21 07:17:38;;;;;;;45.80;38.83;;;22.80;37.40;;;;;;4796930;55;21019;-39
2022/01/21 07:22:39;;;;;;;47.83;40.30;;;22.80;37.40;;;;;;4746922;55;21096;-33
2022/01/21 07:27:39;;;;;;;50.97;43.08;;;22.80;37.40;;;;;;4701701;55;21019;-31
2022/01/21 07:32:42;;;;;;;54.65;42.17;;;22.80;37.40;;;;;;4727620;55;21031;-32
2022/01/21 07:37:43;;;;;;;53.55;43.13;;;22.80;37.40;;;;;;4714467;55;21541;-37
2022/01/21 07:42:44;;;;;;;54.38;43.70;;;22.80;37.40;;;;;;4714600;55;22246;-34
2022/01/21 07:47:45;;;;;;;52.50;43.90;;;22.80;37.40;;;;;;4706548;55;21071;-32
2022/01/21 07:52:45;;;;;;;55.28;45.33;;;22.80;37.40;;;;;;4724830;55;21566;-31
2022/01/21 07:57:46;;;;;;;56.88;45.63;;;22.80;37.30;;;;;;4718547;55;21043;-44
2022/01/21 08:02:47;;;;;;;59.08;47.65;;;22.80;37.30;;;;;;4707748;55;21263;-32
2022/01/21 08:07:48;;;;;;;55.35;46.70;;;22.80;37.30;;;;;;4725884;55;21588;-35
2022/01/21 08:12:49;;;;;;;61.20;49.33;;;22.80;37.30;;;;;;4723585;55;21007;-33
2022/01/21 08:17:50;;;;;;;61.08;49.17;;;22.80;37.20;;;;;;4712212;55;21031;-36
2022/01/21 08:22:51;;;;;;;64.12;50.45;;;22.80;37.20;;;;;;4715957;55;21075;-38
2022/01/21 08:27:51;;;;;;;64.80;51.70;;;22.80;37.30;;;;;;4732813;55;21265;-38
2022/01/21 08:32:52;;;;;;;62.10;50.12;;;22.90;37.40;;;;;;4726656;55;21015;-37
2022/01/21 08:37:55;;;;;;;62.15;49.53;;;22.90;37.60;;;;;;4700913;55;21028;-32
2022/01/21 08:42:56;;;;;;;63.85;51.45;;;22.90;37.90;;;;;;4725388;55;21520;-36
2022/01/21 08:47:57;;;;;;;64.57;52.78;;;23.00;37.90;;;;;;4748035;55;21150;-43
2022/01/21 08:53:09;;;;;;;66.22;52.55;;;23.00;37.90;;;;;;4722627;55;21497;-40
2022/01/21 08:58:10;;;;;;;71.20;54.45;;;23.00;38.20;;;;;;4763999;55;21497;-46
2022/01/21 09:03:11;;;;;;;71.07;57.80;;;23.00;38.40;;;;;;4711601;55;21015;-38
2022/01/21 09:08:13;;;;;;;72.75;57.25;;;23.00;38.50;;;;;;4730550;55;21119;-34
2022/01/21 09:13:14;;;;;;;72.32;56.92;;;23.10;38.70;;;;;;4733166;55;21004;-32
2022/01/21 09:18:19;;;;;;;73.22;58.47;;;23.10;38.80;;;;;;4699866;59;21023;-35
2022/01/21 09:23:20;;;;;;;72.93;59.95;;;23.10;38.90;;;;;;4742579;55;21135;-33
2022/01/21 09:28:21;;;;;;;76.03;60.50;;;23.10;39.00;;;;;;4700622;59;21083;-34
2022/01/21 09:33:22;;;;;;;74.57;61.67;;;23.20;39.10;;;;;;4710354;55;21545;-32
2022/01/21 09:38:24;;;;;;;79.45;63.08;;;23.20;38.90;;;;;;4720875;55;21056;-32
2022/01/21 09:43:25;;;;;;;80.72;64.18;;;23.20;38.80;;;;;;4768459;55;21011;-35
2022/01/21 09:48:30;;;;;;;83.25;67.25;;;23.20;38.60;;;;;;4701344;55;21023;-37
2022/01/21 09:53:33;;;;;;;86.82;68.95;;;23.20;38.50;;;;;;4704157;55;21478;-34
2022/01/21 09:58:34;;;;;;;86.07;70.03;;;23.20;38.40;;;;;;4712132;55;21054;-37
2022/01/21 10:03:36;;;;;;;89.32;69.80;;;23.20;38.30;;;;;;4701992;55;21011;-33
2022/01/21 10:08:40;;;;;;;94.47;75.15;;;23.20;38.50;;;;;;4746636;55;21059;-38
2022/01/21 10:13:43;;;;;;;92.10;74.85;;;23.20;38.60;;;;;;4700364;59;21473;-43
2022/01/21 10:19:07;;;;;;;98.87;78.53;;;23.20;38.70;;;;;;4699624;55;21489;-35
2022/01/21 10:24:10;;;;;;;101.32;81.07;;;23.20;38.80;;;;;;4699174;59;21151;-46
2022/01/21 10:29:11;;;;;;;101.57;79.68;;;23.20;38.90;;;;;;4703879;55;21133;-39
2022/01/21 10:34:12;;;;;;;103.40;81.72;;;23.30;39.10;;;;;;4725388;55;21039;-36
2022/01/21 10:39:19;;;;;;;106.43;85.53;;;23.30;39.10;;;;;;4713310;55;21146;-33
2022/01/21 10:44:20;;;;;;;104.25;84.90;;;23.20;39.10;;;;;;4704984;55;21470;-30
2022/01/21 10:49:21;;;;;;;110.82;88.93;;;23.30;39.20;;;;;;4720842;55;21123;-31
2022/01/21 10:54:30;;;;;;;111.25;88.60;;;23.30;39.30;;;;;;4712765;55;21138;-37
2022/01/21 10:59:48;;;;;;;123.90;99.53;;;23.30;39.30;;;;;;4726089;55;21505;-37
2022/01/21 11:04:52;;;;;;;128.15;101.70;;;23.30;39.00;;;;;;4735465;55;21565;-34
2022/01/21 11:09:53;;;;;;;127.47;102.03;;;23.30;39.10;;;;;;4700126;59;21008;-37
2022/01/21 11:15:03;;;;;;;134.55;109.57;;;23.30;39.20;;;;;;4700157;59;21517;-35
2022/01/21 11:20:16;;;;;;;135.00;108.93;;;23.40;39.20;;;;;;4700386;59;21083;-33
2022/01/21 11:25:18;;;;;;;137.75;111.32;;;23.40;39.30;;;;;;4701535;55;21584;-33
2022/01/21 11:30:18;;;;;;;137.68;108.18;;;23.40;39.30;;;;;;4700148;59;21043;-44
2022/01/21 11:35:20;;;;;;;138.12;111.85;;;23.40;39.30;;;;;;4700939;59;21015;-34
2022/01/21 11:40:22;;;;;;;142.82;111.12;;;23.40;39.40;;;;;;4703338;55;21015;-41
2022/01/21 11:45:43;;;;;;;143.30;111.32;;;23.50;39.40;;;;;;4700760;55;21027;-32
2022/01/21 11:50:50;;;;;;;136.65;111.07;;;23.50;39.50;;;;;;4706842;55;20992;-32
2022/01/21 11:55:51;;;;;;;;;;;23.50;39.50;;;;;;4717316;55;21703;-32
2022/01/21 12:00:53;;;;;;;137.52;110.93;;;23.50;39.70;;;;;;4706253;55;20173;-34
2022/01/21 12:05:54;;;;;;;135.63;110.35;;;23.50;39.50;;;;;;4729697;54;21568;-35
2022/01/21 12:10:55;;;;;;;136.45;110.63;;;23.50;39.30;;;;;;4701057;59;21004;-35
2022/01/21 12:21:41;;;;;;;136.88;110.50;;;23.50;39.00;;;;;;4718735;55;21059;-35
2022/01/21 12:26:56;;;;;;;137.98;110.97;;;23.50;38.80;;;;;;4740193;55;21533;-36
2022/01/21 12:32:03;;;;;;;137.07;109.63;;;23.50;38.70;;;;;;4700425;55;21896;-39
2022/01/21 12:37:10;;;;;;;131.63;105.43;;;23.50;38.60;;;;;;4708677;55;22027;-32
2022/01/21 12:43:29;;;;;;;134.87;108.77;;;23.50;38.50;;;;;;4702484;55;21011;-35
2022/01/21 12:48:34;;;;;;;132.35;107.65;;;23.50;38.30;;;;;;4727711;55;21127;-35
2022/01/21 12:53:45;;;;;;;130.90;107.80;;;23.50;38.20;;;;;;4715162;55;21501;-30
2022/01/21 12:58:47;;;;;;;131.65;106.15;;;23.50;38.10;;;;;;4702052;55;21521;-35
2022/01/21 13:03:56;;;;;;;127.38;104.00;;;23.40;38.20;;;;;;4700077;59;21095;-33
2022/01/21 13:09:12;;;;;;;132.12;107.70;;;23.40;38.50;;;;;;4716629;55;21047;-29
2022/01/21 13:20:28;;;;;;;125.82;105.45;;;23.20;39.10;;;;;;4719270;55;21127;-33
2022/01/21 13:25:31;;;;;;;130.55;106.65;;;23.20;39.40;;;;;;4725137;55;21016;-36
2022/01/21 13:30:36;;;;;;;129.48;104.63;;;23.10;39.60;;;;;;4718085;55;21517;-31
2022/01/21 13:35:41;;;;;;;122.30;101.10;;;23.00;39.70;;;;;;4742150;55;21971;-39
2022/01/21 13:40:53;;;;;;;131.37;104.60;;;23.00;39.90;;;;;;4714649;55;21071;-38
2022/01/21 13:46:08;;;;;;;121.22;97.50;;;22.90;40.00;;;;;;4715844;55;21544;-37
2022/01/21 13:51:09;;;;;;;122.10;102.43;;;22.90;40.10;;;;;;4721524;55;21544;-36
2022/01/21 13:56:15;;;;;;;122.95;100.25;;;22.80;40.20;;;;;;4724405;55;21078;-39
2022/01/21 14:01:21;;;;;;;121.43;100.28;;;22.80;40.40;;;;;;4700352;59;21492;-35
2022/01/21 14:06:24;;;;;;;123.87;98.35;;;22.80;40.40;;;;;;4700245;59;21462;-36
2022/01/21 14:11:36;;;;;;;120.82;97.55;;;22.70;40.50;;;;;;4700453;59;21089;-38
2022/01/21 14:16:46;;;;;;;122.28;98.68;;;22.70;40.60;;;;;;4700472;59;21545;-35
2022/01/21 14:21:48;;;;;;;120.28;98.15;;;22.60;40.70;;;;;;4705999;55;21541;-31
2022/01/21 14:26:51;;;;;;;122.62;98.28;;;22.60;40.80;;;;;;4720822;55;21063;-32
2022/01/21 14:31:52;;;;;;;122.32;99.82;;;22.50;40.90;;;;;;4743398;55;21050;-40
2022/01/21 14:37:13;;;;;;;121.87;97.57;;;22.50;41.00;;;;;;4707447;55;22046;-37
2022/01/21 14:42:26;;;;;;;121.95;97.57;;;22.50;40.90;;;;;;4710729;55;21576;-37
2022/01/21 14:47:30;;;;;;;120.35;97.32;;;22.40;40.80;;;;;;4699978;59;21137;-37
2022/01/21 14:52:49;;;;;;;116.37;94.35;;;22.30;40.70;;;;;;4714290;55;21461;-37
2022/01/21 14:58:01;;;;;;;126.82;100.97;;;22.30;40.70;;;;;;4712068;55;21453;-39
2022/01/21 15:03:46;;;;;;;125.55;101.55;;;22.20;40.50;;;;;;4707575;55;21084;-35
2022/01/21 15:08:57;;;;;;;123.87;97.72;;;22.10;40.50;;;;;;4704627;55;21520;-31
2022/01/21 15:14:33;;;;;;;128.82;101.55;;;22.10;40.40;;;;;;4706725;55;21011;-43
2022/01/21 15:19:40;;;;;;;121.32;99.13;;;22.00;40.30;;;;;;4740656;55;21600;-37
2022/01/21 15:24:42;;;;;;;126.90;101.00;;;22.00;40.20;;;;;;4742785;55;21055;-36
2022/01/21 15:29:43;;;;;;;125.00;100.45;;;21.90;40.20;;;;;;4704765;55;21110;-37
2022/01/21 15:34:44;;;;;;;126.35;101.80;;;21.90;40.10;;;;;;4718074;55;21759;-32
2022/01/21 15:39:45;;;;;;;129.30;103.20;;;21.90;40.10;;;;;;4708056;55;21098;-43
2022/01/21 15:44:47;;;;;;;127.68;101.82;;;21.80;40.00;;;;;;4713067;55;21568;-37
2022/01/21 15:49:48;;;;;;;126.65;98.28;;;21.80;39.90;;;;;;4703122;55;22018;-33
2022/01/21 15:54:49;;;;;;;133.63;104.38;;;21.80;39.90;;;;;;4710430;55;21039;-44
2022/01/21 15:59:51;;;;;;;134.77;108.10;;;21.80;39.80;;;;;;4700676;59;21031;-36
2022/01/21 16:04:51;;;;;;;132.80;108.47;;;21.70;39.70;;;;;;4703005;55;21411;-38
2022/01/21 16:09:52;;;;;;;139.60;110.10;;;21.70;39.70;;;;;;4700625;59;21202;-37
2022/01/21 16:14:54;;;;;;;142.45;111.97;;;21.70;39.50;;;;;;4712760;55;21440;-34
2022/01/21 16:19:55;;;;;;;143.40;113.82;;;21.70;39.50;;;;;;4715752;55;21937;-35
2022/01/21 16:24:56;;;;;;;147.23;115.53;;;21.60;39.40;;;;;;4742208;55;21063;-37
2022/01/21 16:29:57;;;;;;;145.07;116.43;;;21.60;39.30;;;;;;4711623;55;21750;-35
2022/01/21 16:34:58;;;;;;;144.93;116.07;;;21.60;39.30;;;;;;4702899;55;21186;-34
2022/01/21 16:40:03;;;;;;;147.62;118.25;;;21.50;39.20;;;;;;4721494;55;22073;-35
2022/01/21 16:45:09;;;;;;;137.43;107.37;;;21.50;39.20;;;;;;4759346;55;22416;-39
2022/01/21 16:50:11;;;;;;;148.25;118.55;;;21.50;39.20;;;;;;4704468;55;21481;-36
2022/01/21 16:55:13;;;;;;;142.93;116.85;;;21.50;39.10;;;;;;4719573;55;21486;-43
2022/01/21 17:00:15;;;;;;;141.20;112.70;;;21.50;39.10;;;;;;4700879;59;21055;-36
2022/01/21 17:05:16;;;;;;;147.07;117.75;;;21.50;39.10;;;;;;4700316;57;21028;-40
2022/01/21 17:10:19;;;;;;;152.98;123.35;;;21.50;39.00;;;;;;4740337;55;21130;-32
2022/01/21 17:15:20;;;;;;;144.65;119.93;;;21.40;39.60;;;;;;4700460;56;21071;-34
2022/01/21 17:20:21;;;;;;;146.55;118.75;;;21.40;39.00;;;;;;4731426;55;21521;-34
2022/01/21 17:25:22;;;;;;;134.95;108.07;;;21.40;38.90;;;;;;4700597;59;21099;-33
2022/01/21 17:30:23;;;;;;;146.40;121.00;;;21.40;38.90;;;;;;4713342;55;21019;-37
2022/01/21 17:35:24;;;;;;;149.27;120.53;;;21.30;38.80;;;;;;4725614;55;21099;-35
2022/01/21 17:40:27;;;;;;;147.18;118.90;;;21.30;38.80;;;;;;4789278;55;21091;-45
2022/01/21 17:45:29;;;;;;;147.18;122.80;;;21.30;38.90;;;;;;4699795;59;21584;-36
2022/01/21 17:50:30;;;;;;;151.98;123.60;;;21.30;38.80;;;;;;4726845;55;21027;-46
2022/01/21 17:55:31;;;;;;;148.85;119.13;;;21.30;38.80;;;;;;4726040;55;21134;-37
2022/01/21 18:00:32;;;;;;;154.68;124.93;;;21.30;38.80;;;;;;4715869;55;21957;-38
2022/01/21 18:05:33;;;;;;;158.00;127.12;;;21.30;38.70;;;;;;4725253;55;21079;-35
2022/01/21 18:10:52;;;;;;;157.50;127.85;;;21.20;38.70;;;;;;4737568;55;22217;-41
2022/01/21 18:15:55;;;;;;;164.23;131.07;;;21.20;38.70;;;;;;4700221;59;22053;-34
2022/01/21 18:20:56;;;;;;;156.35;122.78;;;21.20;38.70;;;;;;4719909;55;21047;-37
2022/01/21 18:25:57;;;;;;;167.18;133.30;;;21.20;38.70;;;;;;4699365;59;21874;-34
2022/01/21 18:30:58;;;;;;;160.65;131.02;;;21.20;38.70;;;;;;4717055;55;21107;-34
2022/01/21 18:36:02;;;;;;;168.23;134.63;;;21.20;38.70;;;;;;4700844;56;21007;-38
2022/01/21 18:41:03;;;;;;;167.70;132.48;;;21.10;38.60;;;;;;4708559;55;21549;-35
2022/01/21 18:46:09;;;;;;;172.18;135.40;;;21.10;38.60;;;;;;4707880;55;21505;-36
2022/01/21 18:51:13;;;;;;;171.65;138.75;;;21.10;38.60;;;;;;4710950;55;21089;-37
2022/01/21 18:56:15;;;;;;;176.32;136.30;;;21.10;38.60;;;;;;4723622;55;21110;-33
2022/01/21 19:01:20;;;;;;;170.55;136.70;;;21.10;38.60;;;;;;4705659;55;21016;-36
2022/01/21 19:06:24;;;;;;;164.82;134.43;;;21.10;38.60;;;;;;4713388;55;21540;-36
2022/01/21 19:11:26;;;;;;;171.65;137.05;;;21.10;38.60;;;;;;4706363;55;21521;-33
2022/01/21 19:16:27;;;;;;;169.25;135.20;;;21.10;38.60;;;;;;4771328;54;21023;-31
2022/01/21 19:21:30;;;;;;;174.07;139.40;;;21.00;38.50;;;;;;4707400;55;21588;-35
2022/01/21 19:26:48;;;;;;;174.40;138.85;;;21.10;38.60;;;;;;4702468;55;21529;-33
2022/01/21 19:31:50;;;;;;;175.40;139.82;;;21.00;38.60;;;;;;4700159;59;21457;-35
2022/01/21 19:36:51;;;;;;;163.87;130.23;;;21.00;38.50;;;;;;4727334;55;21473;-37
2022/01/21 19:41:52;;;;;;;176.00;141.35;;;21.00;38.60;;;;;;4702659;55;21095;-37
2022/01/21 19:46:57;;;;;;;173.62;135.07;;;21.00;38.60;;;;;;4723245;55;21544;-32
2022/01/21 19:51:58;;;;;;;174.52;141.00;;;21.00;38.60;;;;;;4701857;55;21505;-30
2022/01/21 19:57:11;;;;;;;171.20;135.65;;;21.00;38.60;;;;;;4706457;55;21573;-33
2022/01/21 20:02:28;;;;;;;175.38;136.95;;;20.90;38.60;;;;;;4707077;55;21593;-33
2022/01/21 20:08:33;;;;;;;179.18;145.57;;;21.00;38.60;;;;;;4708901;55;21521;-34
2022/01/21 20:13:46;;;;;;;178.20;139.20;;;20.90;38.60;;;;;;4736174;55;21530;-37
2022/01/21 20:18:49;;;;;;;174.38;137.62;;;20.90;38.60;;;;;;4726997;55;21497;-38
2022/01/21 20:23:53;;;;;;;180.23;142.32;;;20.90;38.50;;;;;;4752874;54;21561;-32
2022/01/21 20:28:55;;;;;;;188.37;145.82;;;20.90;38.60;;;;;;4705117;55;21094;-36
2022/01/21 20:33:59;;;;;;;181.50;142.93;;;20.90;38.50;;;;;;4707579;55;21110;-40
2022/01/21 20:39:04;;;;;;;176.63;141.93;;;20.90;38.50;;;;;;4720570;55;21486;-32
2022/01/21 20:44:06;;;;;;;191.57;149.50;;;20.80;38.40;;;;;;4713796;55;21497;-32
2022/01/21 20:49:07;;;;;;;182.07;145.23;;;20.90;38.40;;;;;;4705297;55;21552;-36
2022/01/21 20:54:08;;;;;;;188.57;147.43;;;20.80;38.40;;;;;;4754571;55;21008;-35
2022/01/21 20:59:09;;;;;;;186.62;146.02;;;20.80;38.40;;;;;;4728285;55;21132;-36
2022/01/21 21:04:10;;;;;;;185.48;148.15;;;20.80;38.30;;;;;;4699972;55;21079;-34
2022/01/21 21:09:19;;;;;;;181.93;140.80;;;20.80;38.30;;;;;;4745646;55;21517;-37
2022/01/21 21:14:31;;;;;;;190.62;146.82;;;20.80;38.30;;;;;;4722316;55;21565;-36
2022/01/21 21:24:52;;;;;;;184.15;144.57;;;20.80;38.30;;;;;;4699545;55;21095;-36
2022/01/21 21:30:14;;;;;;;174.27;134.63;;;20.80;38.20;;;;;;4701358;55;21125;-33
2022/01/21 23:04:33;;;;;;;167.32;133.75;;;20.60;37.50;;;;;;4699674;55;21055;-38
2022/01/21 23:09:34;;;;;;;164.50;129.85;;;20.60;37.50;;;;;;4745258;55;21589;-34
2022/01/21 23:14:35;;;;;;;162.55;130.77;;;20.60;37.40;;;;;;4741832;55;21091;-36
2022/01/21 23:19:36;;;;;;;160.30;128.95;;;20.60;37.50;;;;;;4701084;55;21545;-35
2022/01/21 23:24:37;;;;;;;154.35;121.55;;;20.60;37.40;;;;;;4724503;55;21035;-38
2022/01/21 23:29:38;;;;;;;157.85;125.62;;;20.60;38.10;;;;;;4722249;55;21557;-37
2022/01/21 23:34:47;;;;;;;157.43;125.38;;;20.50;37.30;;;;;;4719264;55;21019;-35
2022/01/21 23:40:13;;;;;;;149.90;119.20;;;20.50;37.30;;;;;;4735117;55;21505;-36
2022/01/21 23:45:19;;;;;;;159.07;128.45;;;20.50;37.30;;;;;;4761766;55;21503;-36
2022/01/21 23:50:24;;;;;;;152.62;123.72;;;20.50;37.20;;;;;;4707354;55;21031;-36
2022/01/21 23:55:25;;;;;;;153.43;122.75;;;20.50;37.20;;;;;;4701513;55;20983;-29
